Time;durP1;ratioP1;P1;durP2;ratioP2;P2;SDS_P1;SDS_P2;PMS_P1;PMS_P2;Temp;Humidity;BMP_temperature;BMP_pressure;BME280_temperature;BME280_humidity;BME280_pressure;Samples;Min_cycle;Max_cycle;Signal;HPM_P1;HPM_P2
2024/04/25 00:02:19;;;;;;;2.83;1.35;;;;;;;4.92;56.80;99684.94;5496885;25;20006;-47
2024/04/25 00:04:49;;;;;;;4.47;1.05;;;;;;;4.93;56.78;99673.84;5503276;26;20022;-47
2024/04/25 00:07:17;;;;;;;6.75;1.42;;;;;;;4.93;56.82;99681.56;5499307;26;20002;-48
2024/04/25 00:09:45;;;;;;;3.10;1.13;;;;;;;4.89;56.96;99670.38;5509923;26;20067;-48
2024/04/25 00:12:13;;;;;;;3.72;1.73;;;;;;;4.89;57.05;99666.09;5499825;25;20017;-50
2024/04/25 00:14:40;;;;;;;3.97;0.95;;;;;;;4.91;57.43;99665.25;5510943;25;20340;-46
2024/04/25 00:17:08;;;;;;;1.92;0.82;;;;;;;4.90;57.33;99659.28;5497324;26;20459;-47
2024/04/25 00:19:36;;;;;;;4.80;1.45;;;;;;;4.89;57.42;99655.84;5507800;26;19994;-49
2024/04/25 00:22:05;;;;;;;6.43;1.15;;;;;;;4.88;57.59;99643.84;5493387;26;20013;-46
2024/04/25 00:24:32;;;;;;;3.25;1.00;;;;;;;4.85;57.45;99637.81;5500058;26;20016;-47
2024/04/25 00:27:00;;;;;;;2.92;1.25;;;;;;;4.82;57.70;99633.50;5512759;26;20041;-49
2024/04/25 00:29:27;;;;;;;6.30;1.70;;;;;;;4.80;57.69;99621.50;5487137;26;19998;-48
2024/04/25 00:31:55;;;;;;;3.08;1.55;;;;;;;4.78;57.94;99621.47;5512588;26;20016;-48
2024/04/25 00:34:22;;;;;;;1.30;0.77;;;;;;;4.76;57.88;99610.31;5500156;25;19994;-48
2024/04/25 00:36:50;;;;;;;3.38;1.48;;;;;;;4.78;57.65;99606.06;5500647;26;20002;-47
2024/04/25 00:39:18;;;;;;;1.95;1.25;;;;;;;4.78;57.93;99606.06;5506637;26;20002;-52
2024/04/25 00:41:45;;;;;;;4.90;1.35;;;;;;;4.80;57.78;99604.38;5492439;26;20047;-51
2024/04/25 00:44:13;;;;;;;5.75;1.77;;;;;;;4.83;58.10;99594.16;5497713;25;20079;-53
2024/04/25 00:46:42;;;;;;;5.00;1.35;;;;;;;4.86;58.01;99594.19;5504213;26;20008;-51
2024/04/25 00:49:14;;;;;;;3.03;1.60;;;;;;;4.88;58.26;99584.84;5500525;26;20015;-50
2024/04/25 00:51:42;;;;;;;4.13;1.63;;;;;;;4.93;58.23;99586.59;5510356;25;19997;-49
2024/04/25 00:54:10;;;;;;;4.75;2.28;;;;;;;4.94;57.91;99580.59;5516878;26;20014;-48
2024/04/25 00:56:39;;;;;;;7.22;2.28;;;;;;;4.94;58.37;99575.47;5518401;26;20074;-53
2024/04/25 00:59:07;;;;;;;3.13;1.50;;;;;;;4.96;58.07;99584.91;5458891;26;20077;-50
2024/04/25 01:01:35;;;;;;;2.33;1.15;;;;;;;4.98;57.88;99572.09;5458193;26;19993;-49
2024/04/25 01:04:04;;;;;;;3.97;2.40;;;;;;;5.00;58.25;99575.56;5449237;26;20796;-48
2024/04/25 01:06:33;;;;;;;4.90;1.33;;;;;;;5.00;58.43;99567.88;5500712;26;20012;-50
2024/04/25 01:09:00;;;;;;;2.65;1.60;;;;;;;5.02;58.47;99566.16;5478555;25;19997;-47
2024/04/25 01:11:28;;;;;;;4.38;1.05;;;;;;;5.02;58.60;99558.47;5492385;26;20001;-50
2024/04/25 01:13:56;;;;;;;5.30;1.30;;;;;;;5.04;58.52;99561.91;5513023;25;20001;-47
2024/04/25 01:16:22;;;;;;;3.85;1.55;;;;;;;5.06;58.77;99555.09;5511941;26;20845;-50
2024/04/25 01:18:49;;;;;;;4.43;1.42;;;;;;;5.07;58.46;99551.66;5507093;26;20401;-47
2024/04/25 01:21:16;;;;;;;3.42;1.48;;;;;;;5.08;58.42;99548.28;5515509;26;20001;-48
2024/04/25 01:23:45;;;;;;;3.53;1.88;;;;;;;5.11;58.90;99538.06;5504495;25;20086;-50
2024/04/25 01:26:12;;;;;;;5.20;1.48;;;;;;;5.12;58.60;99531.19;5461082;25;20760;-52
2024/04/25 01:28:41;;;;;;;4.22;1.45;;;;;;;5.14;58.61;99526.94;5511917;25;20080;-53
2024/04/25 01:31:09;;;;;;;2.60;1.42;;;;;;;5.16;58.80;99524.41;5499887;25;20021;-52
2024/04/25 01:33:37;;;;;;;5.63;1.63;;;;;;;5.16;58.71;99516.69;5463614;26;20214;-52
2024/04/25 01:36:05;;;;;;;5.13;1.63;;;;;;;5.19;58.81;99509.00;5465711;26;20451;-49
2024/04/25 01:38:31;;;;;;;1.65;0.85;;;;;;;5.14;58.99;99502.13;5515742;26;20046;-49
2024/04/25 01:40:58;;;;;;;8.27;1.65;;;;;;;5.18;58.77;99502.16;5503378;26;20021;-49
2024/04/25 01:43:25;;;;;;;1.48;1.10;;;;;;;5.20;58.97;99495.34;5458735;25;20006;-47
2024/04/25 01:45:52;;;;;;;3.30;1.35;;;;;;;5.19;59.27;99493.59;5496058;25;20002;-49
2024/04/25 01:48:19;;;;;;;4.82;1.52;;;;;;;5.19;58.72;99491.03;5511411;25;20077;-47
2024/04/25 01:50:46;;;;;;;4.00;1.38;;;;;;;5.19;59.08;99483.34;5503811;25;20016;-47
2024/04/25 01:53:13;;;;;;;5.43;2.03;;;;;;;5.19;59.08;99476.50;5498635;25;20561;-50
2024/04/25 01:55:40;;;;;;;6.03;1.65;;;;;;;5.22;59.10;99467.97;5503702;26;20006;-46
2024/04/25 01:58:06;;;;;;;5.40;2.13;;;;;;;5.20;59.00;99467.09;5511430;25;20062;-47
2024/04/25 02:00:33;;;;;;;3.47;1.35;;;;;;;5.19;59.14;99462.78;5504531;25;20006;-47
2024/04/25 02:03:00;;;;;;;2.83;1.52;;;;;;;5.18;59.12;99453.38;5507784;25;20104;-46
2024/04/25 02:05:27;;;;;;;5.40;1.40;;;;;;;5.16;59.00;99455.09;5495127;26;20039;-49
2024/04/25 02:07:54;;;;;;;2.72;1.40;;;;;;;5.12;58.76;99439.66;5495745;26;20024;-49
2024/04/25 02:10:21;;;;;;;4.40;1.25;;;;;;;5.08;59.11;99440.47;5499287;26;20009;-49
2024/04/25 02:12:48;;;;;;;2.67;1.20;;;;;;;5.05;59.06;99437.84;5510249;25;20337;-46
2024/04/25 02:15:15;;;;;;;6.72;2.15;;;;;;;5.02;59.25;99437.81;5510075;25;20012;-47
2024/04/25 02:17:42;;;;;;;4.00;1.73;;;;;;;4.99;59.02;99430.09;5513007;25;20077;-50
2024/04/25 02:25:43;;;;;;;4.75;1.52;;;;;;;4.89;59.31;99424.88;5475298;26;20002;-50
2024/04/25 02:28:11;;;;;;;1.65;0.90;;;;;;;4.83;59.79;99422.22;5503901;26;20016;-48
2024/04/25 02:30:37;;;;;;;3.53;1.65;;;;;;;4.83;59.60;99419.66;5504540;26;20002;-48
2024/04/25 02:33:04;;;;;;;6.22;1.60;;;;;;;4.81;59.58;99411.09;5496392;25;19998;-48
2024/04/25 02:35:31;;;;;;;3.00;1.55;;;;;;;4.80;59.86;99406.78;5504521;25;20009;-47
2024/04/25 02:37:58;;;;;;;7.72;2.25;;;;;;;4.78;59.82;99405.94;5508695;26;19997;-48
2024/04/25 02:40:25;;;;;;;4.80;1.90;;;;;;;4.76;59.70;99399.91;5489757;26;20006;-48
2024/04/25 02:42:51;;;;;;;6.53;1.65;;;;;;;4.75;59.82;99398.19;5500714;25;20006;-49
2024/04/25 02:45:18;;;;;;;2.88;1.67;;;;;;;4.73;59.76;99394.78;5503603;26;20010;-47
2024/04/25 02:47:45;;;;;;;6.43;1.60;;;;;;;4.71;60.30;99393.88;5513650;26;19997;-47
2024/04/25 02:50:12;;;;;;;4.75;1.40;;;;;;;4.69;60.24;99385.31;5511549;25;20005;-48
2024/04/25 02:52:39;;;;;;;4.32;1.98;;;;;;;4.69;59.97;99390.47;5500581;26;19997;-49
2024/04/25 02:55:06;;;;;;;4.00;1.92;;;;;;;4.69;60.17;99383.59;5502397;26;20010;-47
2024/04/25 02:57:32;;;;;;;2.15;1.65;;;;;;;4.70;60.10;99377.63;5512065;26;20003;-49
2024/04/25 02:59:59;;;;;;;6.47;2.00;;;;;;;4.69;59.98;99378.47;5499820;26;20006;-48
2024/04/25 03:02:27;;;;;;;6.95;2.97;;;;;;;4.70;60.36;99376.78;5471440;26;20645;-50
2024/04/25 03:04:54;;;;;;;4.65;2.05;;;;;;;4.67;60.14;99371.59;5517499;25;20017;-48
2024/04/25 03:07:21;;;;;;;3.97;2.28;;;;;;;4.63;60.28;99369.00;5506480;25;20014;-47
2024/04/25 03:09:48;;;;;;;6.80;2.47;;;;;;;4.59;60.14;99366.41;5511355;25;20026;-46
2024/04/25 03:12:14;;;;;;;3.88;1.73;;;;;;;4.54;60.14;99366.34;5503931;25;20016;-47
2024/04/25 03:14:42;;;;;;;5.82;1.67;;;;;;;4.49;60.44;99362.84;5510812;25;20140;-47
2024/04/25 03:17:08;;;;;;;8.48;2.00;;;;;;;4.45;60.67;99361.97;5501180;25;20081;-52
2024/04/25 03:19:35;;;;;;;6.57;2.33;;;;;;;4.43;60.53;99357.69;5500270;25;19998;-48
2024/04/25 03:22:02;;;;;;;3.80;1.60;;;;;;;4.36;61.28;99354.19;5509336;25;19996;-52
2024/04/25 03:24:29;;;;;;;3.78;1.60;;;;;;;4.31;61.56;99350.69;5490157;25;20024;-47
2024/04/25 03:26:55;;;;;;;11.70;1.58;;;;;;;4.26;61.67;99353.22;5482921;25;20074;-50
2024/04/25 03:29:22;;;;;;;2.95;1.30;;;;;;;4.22;61.81;99344.63;5507002;26;20475;-48
2024/04/25 03:31:50;;;;;;;4.43;2.90;;;;;;;4.22;61.35;99343.78;5497062;25;20847;-50
2024/04/25 03:34:17;;;;;;;4.55;2.00;;;;;;;4.19;61.92;99336.88;5503535;25;20400;-49
2024/04/25 03:36:44;;;;;;;5.35;1.90;;;;;;;4.18;62.04;99331.75;5501332;26;20012;-50
2024/04/25 03:39:12;;;;;;;5.18;2.22;;;;;;;4.21;61.58;99326.66;5501718;25;20001;-48
2024/04/25 03:41:41;;;;;;;5.72;2.45;;;;;;;4.22;61.60;99320.72;5499824;25;20012;-49
2024/04/25 03:44:07;;;;;;;3.42;2.33;;;;;;;4.23;61.61;99319.84;5471917;25;20012;-48
2024/04/25 03:46:35;;;;;;;6.15;2.53;;;;;;;4.23;61.57;99317.28;5498842;25;19998;-48
2024/04/25 03:49:02;;;;;;;5.47;2.17;;;;;;;4.23;61.96;99312.16;5509106;25;20009;-47
2024/04/25 03:51:29;;;;;;;5.82;1.75;;;;;;;4.23;62.16;99309.59;5523567;25;20074;-49
2024/04/25 03:53:56;;;;;;;4.72;1.75;;;;;;;4.23;61.96;99307.03;5498874;26;20447;-48
2024/04/25 03:56:23;;;;;;;7.97;2.08;;;;;;;4.21;61.88;99301.03;5483055;26;20013;-48
2024/04/25 03:58:50;;;;;;;7.70;2.25;;;;;;;4.20;62.46;99289.94;5500546;25;19998;-49
2024/04/25 04:01:16;;;;;;;4.28;2.47;;;;;;;4.22;62.45;99293.34;5512043;25;20010;-47
2024/04/25 04:03:43;;;;;;;5.70;2.72;;;;;;;4.22;62.50;99283.09;5504023;25;20331;-49
2024/04/25 04:06:10;;;;;;;6.65;1.73;;;;;;;4.21;62.75;99281.38;5501330;25;20457;-47
2024/04/25 04:08:37;;;;;;;7.38;2.50;;;;;;;4.19;62.52;99283.06;5493810;26;20082;-48
2024/04/25 04:11:04;;;;;;;4.35;2.28;;;;;;;4.18;62.82;99275.34;5495387;25;20016;-48
2024/04/25 04:13:35;;;;;;;8.90;2.50;;;;;;;4.18;62.64;99265.09;5511939;25;20009;-49
2024/04/25 04:16:03;;;;;;;4.63;1.83;;;;;;;4.15;63.08;99255.69;5484998;26;20012;-50
2024/04/25 04:18:30;;;;;;;5.55;2.72;;;;;;;4.14;63.22;99263.34;5501233;25;20002;-47
2024/04/25 04:20:56;;;;;;;3.50;2.00;;;;;;;4.16;63.55;99253.97;5498852;25;20019;-48
2024/04/25 04:23:23;;;;;;;3.28;1.52;;;;;;;4.12;63.50;99242.81;5501985;25;20442;-46
2024/04/25 04:25:50;;;;;;;4.80;2.83;;;;;;;4.11;63.67;99238.53;5512502;26;20006;-48
2024/04/25 04:28:17;;;;;;;4.88;2.05;;;;;;;4.10;63.87;99236.84;5513249;25;20013;-48
2024/04/25 04:30:44;;;;;;;5.25;2.10;;;;;;;4.09;64.00;99233.41;5504827;25;20013;-48
2024/04/25 04:33:10;;;;;;;3.38;2.05;;;;;;;4.05;63.89;99223.97;5499019;25;20009;-51
2024/04/25 04:35:37;;;;;;;9.45;2.00;;;;;;;4.06;63.85;99225.69;5514066;25;20002;-50
2024/04/25 04:38:04;;;;;;;9.55;2.45;;;;;;;4.05;64.08;99225.69;5503403;25;20861;-48
2024/04/25 04:40:31;;;;;;;6.78;2.72;;;;;;;4.04;63.60;99214.56;5513988;25;20462;-47
2024/04/25 04:42:58;;;;;;;4.97;1.98;;;;;;;4.01;63.89;99214.53;5511650;25;20005;-48
2024/04/25 04:45:25;;;;;;;2.92;1.75;;;;;;;4.00;64.07;99205.13;5505696;26;20081;-49
2024/04/25 04:47:52;;;;;;;3.80;2.20;;;;;;;3.99;64.05;99201.69;5513983;25;20009;-47
2024/04/25 04:50:19;;;;;;;0.88;0.55;;;;;;;3.96;64.35;99203.38;5515206;25;20333;-46
2024/04/25 04:52:46;;;;;;;4.68;2.17;;;;;;;3.96;64.13;99203.38;5510960;25;20005;-48
2024/04/25 04:55:13;;;;;;;9.45;3.78;;;;;;;3.94;64.31;99194.81;5503485;25;20739;-53
2024/04/25 04:57:40;;;;;;;5.45;2.35;;;;;;;3.98;63.75;99194.00;5520102;25;20053;-50
2024/04/25 05:00:08;;;;;;;10.32;2.42;;;;;;;4.00;63.57;99197.44;5509407;26;20002;-51
2024/04/25 05:02:35;;;;;;;3.70;2.50;;;;;;;4.03;63.45;99200.03;5478763;26;20027;-50
2024/04/25 05:05:02;;;;;;;4.68;2.42;;;;;;;4.04;63.42;99196.63;5496308;25;20538;-47
2024/04/25 05:07:29;;;;;;;6.40;2.67;;;;;;;4.08;63.26;99198.38;5505352;25;20347;-51
2024/04/25 05:09:56;;;;;;;6.13;3.08;;;;;;;4.13;63.35;99190.75;5500079;26;20006;-51
2024/04/25 05:12:23;;;;;;;5.18;2.60;;;;;;;4.17;63.31;99186.50;5516878;25;20042;-49
2024/04/25 05:14:53;;;;;;;6.88;1.50;;;;;;;4.18;63.76;99183.06;5505829;25;20087;-50
2024/04/25 05:17:20;;;;;;;8.45;3.03;;;;;;;4.26;63.18;99180.59;5490427;26;20090;-49
2024/04/25 05:19:47;;;;;;;9.27;2.58;;;;;;;4.29;63.38;99176.34;5501410;25;20335;-50
2024/04/25 05:22:14;;;;;;;3.47;1.83;;;;;;;4.34;63.51;99173.81;5508268;25;20096;-49
2024/04/25 05:24:40;;;;;;;7.75;2.70;;;;;;;4.39;63.04;99173.88;5495221;25;20013;-50
2024/04/25 05:27:07;;;;;;;4.40;2.42;;;;;;;4.42;62.98;99161.94;5501916;25;20013;-49
2024/04/25 05:29:34;;;;;;;8.35;2.65;;;;;;;4.47;63.38;99151.72;5504526;25;20017;-51
2024/04/25 05:32:03;;;;;;;4.15;2.05;;;;;;;4.54;63.07;99161.19;5510849;25;20024;-48
2024/04/25 05:34:30;;;;;;;5.97;2.65;;;;;;;4.61;63.04;99157.81;5509979;25;20009;-47
2024/04/25 05:36:57;;;;;;;7.88;3.05;;;;;;;4.66;63.03;99159.56;5512724;25;20007;-48
2024/04/25 05:39:24;;;;;;;5.47;2.60;;;;;;;4.71;62.80;99158.72;5499507;25;20005;-48
2024/04/25 05:41:51;;;;;;;6.90;2.95;;;;;;;4.75;62.76;99149.34;5498901;25;20459;-48
2024/04/25 05:44:18;;;;;;;5.05;2.50;;;;;;;4.78;62.98;99159.63;5518645;25;19993;-49
2024/04/25 05:46:45;;;;;;;7.38;3.33;;;;;;;4.79;62.88;99151.06;5501722;25;20013;-50
2024/04/25 05:49:12;;;;;;;6.30;3.38;;;;;;;4.84;62.91;99156.25;5500121;25;20001;-48
2024/04/25 05:51:39;;;;;;;5.30;2.78;;;;;;;4.89;62.60;99151.97;5495021;25;20015;-48
2024/04/25 05:54:05;;;;;;;8.15;3.15;;;;;;;4.94;62.91;99152.88;5505150;25;20028;-51
2024/04/25 05:56:32;;;;;;;4.82;2.63;;;;;;;4.97;63.02;99150.31;5489216;25;20343;-46
2024/04/25 05:58:59;;;;;;;6.80;2.88;;;;;;;5.01;62.98;99149.47;5507141;26;20006;-53
2024/04/25 06:01:26;;;;;;;6.45;2.88;;;;;;;5.03;62.69;99149.50;5495984;25;20016;-50
2024/04/25 06:03:52;;;;;;;9.68;3.63;;;;;;;5.03;63.12;99144.34;5501256;25;20281;-50
2024/04/25 06:06:19;;;;;;;7.78;2.83;;;;;;;5.06;62.91;99144.38;5490377;25;20009;-48
2024/04/25 06:08:46;;;;;;;8.55;3.63;;;;;;;5.08;62.99;99140.13;5501259;26;20033;-48
2024/04/25 06:11:13;;;;;;;5.20;2.25;;;;;;;5.10;63.13;99140.97;5500226;26;20073;-51
2024/04/25 06:13:41;;;;;;;4.22;2.30;;;;;;;5.09;63.18;99149.53;5517832;25;20001;-49
2024/04/25 06:16:08;;;;;;;9.27;2.88;;;;;;;5.09;63.37;99149.53;5491873;26;20002;-48
2024/04/25 06:18:34;;;;;;;9.60;2.78;;;;;;;5.08;63.37;99149.53;5496952;25;20609;-50
2024/04/25 06:21:01;;;;;;;10.30;2.45;;;;;;;5.06;63.56;99139.25;5498538;25;20013;-48
2024/04/25 06:23:28;;;;;;;7.45;3.28;;;;;;;5.04;63.64;99135.84;5498549;25;19998;-47
2024/04/25 06:25:55;;;;;;;3.65;2.30;;;;;;;5.04;63.80;99135.84;5520932;25;20005;-47
2024/04/25 06:28:21;;;;;;;4.82;1.05;;;;;;;5.03;64.20;99130.69;5486078;25;20682;-48
2024/04/25 06:30:48;;;;;;;6.45;3.10;;;;;;;5.01;64.12;99125.53;5492332;26;20013;-47
2024/04/25 06:33:15;;;;;;;8.57;3.20;;;;;;;5.00;64.04;99128.97;5508847;25;20012;-50
2024/04/25 06:35:42;;;;;;;8.10;3.47;;;;;;;5.04;63.87;99120.44;5494459;26;20016;-47
2024/04/25 06:38:14;;;;;;;12.30;4.32;;;;;;;5.03;64.26;99112.72;5504812;26;20030;-47
2024/04/25 06:40:42;;;;;;;19.00;4.78;;;;;;;5.07;64.08;99115.28;5496724;25;20012;-47
2024/04/25 06:43:09;;;;;;;9.65;3.25;;;;;;;5.08;63.95;99116.16;5497459;25;20477;-49
2024/04/25 06:45:37;;;;;;;18.33;5.57;;;;;;;5.11;63.71;99111.03;5469521;26;19993;-47
2024/04/25 06:48:04;;;;;;;17.67;6.97;;;;;;;5.11;63.97;99104.22;5506863;25;20073;-48
2024/04/25 06:50:31;;;;;;;17.77;7.80;;;;;;;5.13;64.13;99102.50;5481049;26;19998;-47
2024/04/25 06:52:58;;;;;;;7.65;3.65;;;;;;;5.16;64.23;99100.81;5481996;26;20034;-49
2024/04/25 06:55:25;;;;;;;13.13;3.88;;;;;;;5.18;64.16;99101.66;5478144;26;20046;-46
2024/04/25 06:57:53;;;;;;;4.82;2.47;;;;;;;5.14;64.45;99083.66;5480435;26;20473;-47
2024/04/25 07:00:21;;;;;;;2.80;1.88;;;;;;;5.20;64.59;99087.13;5481915;25;20078;-48
2024/04/25 07:02:47;;;;;;;9.80;3.45;;;;;;;5.31;64.33;99079.44;5488863;26;19998;-49
2024/04/25 07:05:14;;;;;;;6.20;2.90;;;;;;;5.40;64.47;99077.75;5480892;26;20111;-51
2024/04/25 07:07:41;;;;;;;8.52;3.70;;;;;;;5.54;64.41;99079.50;5494392;26;20026;-48
2024/04/25 07:10:08;;;;;;;6.10;2.47;;;;;;;5.63;64.40;99071.81;5480555;26;20035;-48
2024/04/25 07:12:35;;;;;;;6.55;2.20;;;;;;;5.74;64.50;99065.84;5482925;25;20005;-48
2024/04/25 07:15:06;;;;;;;3.78;1.67;;;;;;;5.92;64.47;99060.69;5472192;26;20073;-47
2024/04/25 07:17:34;;;;;;;5.10;2.22;;;;;;;6.48;64.29;99054.69;5495155;25;20001;-48
2024/04/25 07:20:01;;;;;;;8.05;3.25;;;;;;;6.76;63.70;99056.34;5454833;26;20474;-49
2024/04/25 07:22:28;;;;;;;3.20;1.63;;;;;;;6.92;63.02;99058.00;5491025;25;20002;-49
2024/04/25 07:24:55;;;;;;;8.25;3.60;;;;;;;6.94;62.85;99053.72;5487984;25;19998;-48
2024/04/25 07:27:22;;;;;;;4.28;1.80;;;;;;;6.93;62.67;99046.84;5479037;25;20491;-46
2024/04/25 07:29:49;;;;;;;13.40;4.03;;;;;;;7.02;62.41;99045.09;5488949;25;20018;-48
2024/04/25 07:32:16;;;;;;;10.10;3.45;;;;;;;7.16;62.55;99045.88;5486011;25;20534;-49
2024/04/25 07:34:43;;;;;;;10.00;3.35;;;;;;;7.23;62.02;99033.00;5506213;26;20004;-49
2024/04/25 07:37:11;;;;;;;5.65;2.38;;;;;;;7.30;62.29;99035.50;5511953;25;20029;-47
2024/04/25 07:39:37;;;;;;;7.88;3.00;;;;;;;7.44;61.61;99038.00;5502111;25;20461;-50
2024/04/25 07:42:04;;;;;;;14.93;3.10;;;;;;;7.65;61.80;99031.00;5513239;26;20398;-48
2024/04/25 07:44:31;;;;;;;6.50;3.15;;;;;;;7.87;61.91;99028.25;5506301;25;20057;-52
2024/04/25 07:46:58;;;;;;;5.88;2.97;;;;;;;8.29;61.71;99011.53;5501274;25;20001;-48
2024/04/25 07:49:25;;;;;;;8.63;3.40;;;;;;;8.51;61.18;99016.50;5510969;25;20447;-47
2024/04/25 07:51:51;;;;;;;10.02;3.05;;;;;;;8.66;60.62;99015.50;5460111;26;20002;-51
2024/04/25 07:54:18;;;;;;;7.88;4.95;;;;;;;8.75;60.46;99007.66;5510858;26;20578;-50
2024/04/25 07:56:45;;;;;;;7.50;2.42;;;;;;;8.74;60.01;99009.38;5492193;25;20002;-48
2024/04/25 07:59:12;;;;;;;8.77;2.78;;;;;;;8.69;59.94;99006.00;5494322;26;20001;-47
2024/04/25 08:01:39;;;;;;;6.28;2.67;;;;;;;8.64;60.22;99005.19;5501466;25;20016;-51
2024/04/25 08:04:06;;;;;;;2.65;1.48;;;;;;;8.57;60.08;99000.94;5508075;25;20017;-48
2024/04/25 08:06:34;;;;;;;4.45;1.98;;;;;;;8.47;60.13;99002.75;5494444;26;20436;-49
2024/04/25 08:09:01;;;;;;;5.22;2.42;;;;;;;8.44;60.81;99001.06;5498006;26;20013;-49
2024/04/25 08:11:28;;;;;;;3.85;2.05;;;;;;;8.40;60.89;98999.38;5500593;26;19993;-50
2024/04/25 08:13:55;;;;;;;4.88;1.98;;;;;;;8.33;60.59;98997.75;5502491;25;20001;-48
2024/04/25 08:16:26;;;;;;;5.57;2.50;;;;;;;8.30;60.74;98997.78;5495138;25;20008;-50
2024/04/25 08:18:54;;;;;;;5.70;2.22;;;;;;;8.28;60.95;99000.34;5507221;25;20001;-50
2024/04/25 08:21:22;;;;;;;7.43;2.33;;;;;;;8.25;61.06;98994.41;5509581;26;20012;-48
2024/04/25 08:23:49;;;;;;;8.25;2.80;;;;;;;8.19;61.31;98991.00;5502738;26;20096;-46
2024/04/25 08:26:16;;;;;;;6.03;2.58;;;;;;;8.25;61.20;98989.22;5502920;26;20015;-50
2024/04/25 08:28:43;;;;;;;4.82;2.22;;;;;;;8.42;61.43;98992.50;5505547;26;20013;-49
2024/04/25 08:31:10;;;;;;;7.95;1.90;;;;;;;8.68;61.06;98991.34;5511680;26;20014;-51
2024/04/25 08:33:37;;;;;;;7.97;2.55;;;;;;;8.98;61.44;98991.84;5502220;26;20010;-52
2024/04/25 08:36:04;;;;;;;6.05;1.90;;;;;;;9.08;61.08;98981.38;5504718;26;20016;-50
2024/04/25 08:38:34;;;;;;;12.27;3.83;;;;;;;9.12;60.75;98983.09;5510246;26;20597;-49
2024/04/25 08:41:02;;;;;;;;;;;;;;;9.09;60.60;98980.53;5504716;25;20005;-50
2024/04/25 08:43:29;;;;;;;3.63;1.55;;;;;;;9.31;60.42;98977.63;5511026;25;20288;-49
2024/04/25 08:45:57;;;;;;;6.07;1.95;;;;;;;9.49;60.10;98977.34;5497301;26;20010;-51
2024/04/25 08:48:25;;;;;;;5.78;1.88;;;;;;;9.55;59.63;98967.81;5503334;26;20016;-48
2024/04/25 08:50:54;;;;;;;7.55;2.58;;;;;;;9.58;59.92;98965.16;5500665;26;20016;-46
2024/04/25 08:53:25;;;;;;;6.28;2.05;;;;;;;10.03;59.65;98959.22;5498188;26;20010;-46
2024/04/25 08:55:53;;;;;;;4.28;1.73;;;;;;;10.38;59.06;98951.69;5508722;26;20381;-48
2024/04/25 08:58:20;;;;;;;5.55;2.65;;;;;;;10.75;58.22;98956.16;5511810;25;20005;-49
2024/04/25 09:00:47;;;;;;;5.80;2.45;;;;;;;11.31;57.75;98947.13;5509733;26;20451;-49
2024/04/25 09:03:14;;;;;;;7.75;2.53;;;;;;;11.72;57.65;98943.56;5497005;26;19998;-47
2024/04/25 09:05:42;;;;;;;6.97;2.35;;;;;;;12.31;56.86;98946.41;5459255;26;20083;-50
2024/04/25 09:08:11;;;;;;;6.85;2.13;;;;;;;12.79;56.08;98942.44;5503234;26;20007;-49
2024/04/25 09:10:42;;;;;;;7.00;2.55;;;;;;;12.99;54.77;98948.78;5449127;26;20014;-53
2024/04/25 09:13:10;;;;;;;5.13;2.22;;;;;;;13.29;54.99;98940.94;5503441;25;20029;-52
2024/04/25 09:15:37;;;;;;;7.20;2.45;;;;;;;13.69;55.07;98937.97;5510745;26;20001;-52
2024/04/25 09:18:04;;;;;;;8.70;2.45;;;;;;;14.01;54.00;98930.81;5513555;26;20073;-51
2024/04/25 09:20:31;;;;;;;6.50;2.35;;;;;;;14.22;52.77;98925.75;5518446;26;20002;-51
2024/04/25 09:22:59;;;;;;;5.20;2.53;;;;;;;14.32;52.42;98927.09;5510585;25;20009;-52
2024/04/25 09:25:32;;;;;;;3.80;1.63;;;;;;;14.33;52.05;98927.97;5509226;26;20458;-54
2024/04/25 09:28:01;;;;;;;3.60;1.65;;;;;;;14.35;52.00;98921.78;5510937;26;20008;-50
2024/04/25 09:30:30;;;;;;;5.45;1.92;;;;;;;14.54;51.97;98910.69;5521109;25;20001;-51
2024/04/25 09:32:56;;;;;;;4.82;2.00;;;;;;;14.55;51.47;98917.59;5497769;26;20006;-50
2024/04/25 09:35:24;;;;;;;4.57;2.05;;;;;;;14.51;51.15;98905.59;5516757;25;20815;-50
2024/04/25 09:37:51;;;;;;;4.97;2.30;;;;;;;14.68;51.67;98914.50;5504288;26;20045;-51
2024/04/25 09:40:18;;;;;;;6.57;2.75;;;;;;;14.84;51.81;98910.47;5501293;25;19997;-49
2024/04/25 09:42:46;;;;;;;4.85;2.05;;;;;;;15.08;52.05;98893.91;5504693;25;20015;-53
2024/04/25 09:45:15;;;;;;;7.72;2.67;;;;;;;15.18;50.60;98899.59;5505379;26;20010;-48
2024/04/25 09:47:51;;;;;;;8.60;2.25;;;;;;;15.16;50.48;98887.47;5492465;26;20010;-48
2024/04/25 09:50:24;;;;;;;6.47;2.42;;;;;;;15.16;50.71;98887.47;5462337;26;20017;-48
2024/04/25 09:55:37;;;;;;;4.18;2.15;;;;;;;15.18;50.33;98884.81;5435327;25;20374;-51
2024/04/25 09:58:12;;;;;;;4.57;2.45;;;;;;;15.19;50.28;98883.06;5391395;26;20005;-48
2024/04/25 10:00:40;;;;;;;3.30;2.10;;;;;;;15.14;50.47;98875.41;5404259;26;20056;-48
2024/04/25 10:03:08;;;;;;;7.20;2.42;;;;;;;15.22;50.46;98885.53;5390704;26;20013;-51
2024/04/25 10:05:35;;;;;;;5.18;2.80;;;;;;;15.24;50.24;98876.75;5398427;26;20430;-49
2024/04/25 10:08:02;;;;;;;5.18;2.58;;;;;;;15.37;50.07;98874.47;5365982;26;20004;-51
2024/04/25 10:10:29;;;;;;;13.40;2.90;;;;;;;15.60;50.66;98869.22;5381437;26;20004;-50
2024/04/25 10:12:58;;;;;;;4.32;2.15;;;;;;;15.80;49.61;98868.31;5390811;26;19997;-52
2024/04/25 10:15:27;;;;;;;6.53;2.35;;;;;;;15.78;47.90;98870.16;5375687;26;20022;-46
2024/04/25 10:17:54;;;;;;;;;;;;;;;15.56;48.09;98868.47;5374735;26;20015;-51
2024/04/25 10:20:21;;;;;;;6.40;2.00;;;;;;;15.45;49.21;98849.81;5368128;26;19926;-49
2024/04/25 10:23:06;;;;;;;4.20;1.40;;;;;;;15.44;48.77;98858.56;5375173;26;20069;-48
2024/04/25 10:25:33;;;;;;;4.47;2.80;;;;;;;15.44;48.19;98863.78;5372123;26;20008;-52
2024/04/25 10:28:02;;;;;;;4.70;2.22;;;;;;;15.53;48.70;98858.16;5376921;26;20009;-51
2024/04/25 10:30:29;;;;;;;4.95;1.80;;;;;;;15.61;48.14;98850.88;5374486;26;20000;-50
2024/04/25 10:32:56;;;;;;;5.60;2.00;;;;;;;15.68;48.64;98854.06;5374495;26;20000;-51
2024/04/25 10:35:24;;;;;;;3.70;2.03;;;;;;;15.78;48.21;98846.69;5385675;26;20566;-48
2024/04/25 10:37:52;;;;;;;5.22;2.28;;;;;;;15.97;48.91;98848.53;5348953;26;20004;-50
2024/04/25 10:40:20;;;;;;;2.25;1.98;;;;;;;16.07;47.43;98836.72;5345285;26;20014;-50
2024/04/25 10:43:03;;;;;;;4.18;2.05;;;;;;;16.10;46.20;98836.59;5336484;26;20017;-47
2024/04/25 10:45:31;;;;;;;4.32;2.03;;;;;;;16.18;46.90;98836.25;5343313;26;20922;-48
2024/04/25 10:47:59;;;;;;;5.78;2.58;;;;;;;16.14;46.50;98837.31;5344142;26;20013;-52
2024/04/25 10:50:26;;;;;;;5.28;2.10;;;;;;;16.02;46.35;98830.88;5343575;26;20005;-50
2024/04/25 10:52:55;;;;;;;6.40;2.17;;;;;;;15.87;46.51;98830.59;5341030;26;20001;-51
2024/04/25 10:55:23;;;;;;;4.60;1.90;;;;;;;15.76;46.55;98822.38;5344261;26;20016;-53
2024/04/25 10:57:50;;;;;;;4.05;2.30;;;;;;;15.53;46.34;98821.63;5340264;26;20024;-49
2024/04/25 11:00:17;;;;;;;3.78;1.45;;;;;;;15.44;46.51;98825.50;5340557;26;20001;-52
2024/04/25 11:02:44;;;;;;;3.85;1.60;;;;;;;15.34;46.29;98822.44;5342802;26;20004;-50
2024/04/25 11:05:11;;;;;;;6.93;1.77;;;;;;;15.20;46.52;98814.34;5370742;26;20005;-49
2024/04/25 11:07:39;;;;;;;5.97;1.40;;;;;;;15.00;46.30;98813.41;5329821;26;20001;-52
2024/04/25 11:10:08;;;;;;;3.97;1.50;;;;;;;14.76;46.26;98821.28;5334344;26;20005;-49
2024/04/25 11:12:37;;;;;;;3.28;1.73;;;;;;;14.53;47.40;98815.22;5317767;26;20912;-48
2024/04/25 11:15:16;;;;;;;3.70;1.90;;;;;;;14.28;47.78;98816.13;5349585;26;20015;-51
2024/04/25 11:17:44;;;;;;;4.30;1.77;;;;;;;14.10;48.17;98818.53;5321023;26;20036;-49
2024/04/25 11:20:31;;;;;;;8.25;1.52;;;;;;;13.83;48.43;98821.25;5323326;26;20009;-50
2024/04/25 11:23:14;;;;;;;3.15;1.75;;;;;;;13.67;48.25;98814.88;5331335;26;20033;-50
2024/04/25 11:25:43;;;;;;;3.45;1.90;;;;;;;13.60;48.50;98816.84;5331096;26;20420;-50
2024/04/25 11:28:17;;;;;;;2.75;1.33;;;;;;;13.45;48.62;98815.59;5324381;26;20004;-50
2024/04/25 11:30:44;;;;;;;3.67;1.15;;;;;;;13.32;48.26;98821.22;5325485;26;20074;-46
2024/04/25 11:33:11;;;;;;;6.93;1.27;;;;;;;12.99;49.19;98808.44;5326214;26;20042;-48
2024/04/25 11:35:44;;;;;;;4.88;2.72;;;;;;;12.79;49.34;98816.88;5324483;26;20020;-47
2024/04/25 11:38:11;;;;;;;2.97;1.88;;;;;;;12.65;49.54;98820.75;5322703;26;20011;-47
2024/04/25 11:40:40;;;;;;;4.75;2.15;;;;;;;12.67;50.21;98823.31;5333114;26;20048;-48
2024/04/25 11:43:07;;;;;;;5.97;2.00;;;;;;;12.65;50.38;98825.09;5319677;26;20412;-47
2024/04/25 11:45:37;;;;;;;4.95;1.98;;;;;;;12.68;50.82;98820.66;5355504;26;20041;-49
2024/04/25 11:48:06;;;;;;;3.47;1.88;;;;;;;12.68;50.71;98823.28;5327841;26;20467;-49
2024/04/25 11:50:33;;;;;;;3.50;1.80;;;;;;;12.49;50.55;98815.19;5360060;26;20042;-47